Time;durP1;ratioP1;P1;durP2;ratioP2;P2;SDS_P1;SDS_P2;PMS_P1;PMS_P2;Temp;Humidity;BMP_temperature;BMP_pressure;BME280_temperature;BME280_humidity;BME280_pressure;Samples;Min_cycle;Max_cycle;Signal;HPM_P1;HPM_P2
2023/12/10 00:02:17;;;;;;;82.90;44.30;;;;;;;1.39;100.00;99981.42;104838;1264;98600;-77
2023/12/10 00:05:03;;;;;;;87.20;43.40;;;;;;;1.38;100.00;99979.98;104928;1266;102615;-76
2023/12/10 00:07:48;;;;;;;79.60;43.50;;;;;;;1.35;100.00;99976.84;105052;1264;99543;-76
2023/12/10 00:10:34;;;;;;;77.60;42.20;;;;;;;1.34;100.00;99972.02;104953;1262;97916;-77
2023/12/10 00:13:19;;;;;;;85.80;46.20;;;;;;;1.33;100.00;99972.69;105004;1262;97962;-77
2023/12/10 00:16:05;;;;;;;87.70;46.10;;;;;;;1.32;100.00;99980.36;105033;1262;97991;-75
2023/12/10 00:18:51;;;;;;;88.20;45.60;;;;;;;1.33;100.00;99987.50;104995;1262;102254;-76
2023/12/10 00:21:38;;;;;;;84.50;44.80;;;;;;;1.32;100.00;99990.00;105047;1262;99553;-76
2023/12/10 00:24:24;;;;;;;92.10;46.30;;;;;;;1.30;100.00;99985.80;104725;1262;97964;-77
2023/12/10 00:27:10;;;;;;;86.90;46.40;;;;;;;1.30;100.00;99988.30;104758;1266;97910;-76
2023/12/10 00:29:56;;;;;;;82.50;43.70;;;;;;;1.29;100.00;99986.20;104841;1270;98051;-78
2023/12/10 00:32:41;;;;;;;84.60;44.90;;;;;;;1.29;100.00;99982.89;104781;1262;102739;-78
2023/12/10 00:35:27;;;;;;;86.00;46.20;;;;;;;1.30;100.00;99982.31;104882;1266;99128;-77
2023/12/10 00:38:12;;;;;;;81.10;44.40;;;;;;;1.33;100.00;99980.27;104795;1266;98989;-77
2023/12/10 00:40:58;;;;;;;78.00;43.50;;;;;;;1.35;100.00;99981.40;104804;1262;97996;-76
2023/12/10 00:43:43;;;;;;;89.10;45.80;;;;;;;1.38;100.00;99983.46;104836;1264;97956;-77
2023/12/10 00:46:29;;;;;;;85.60;43.70;;;;;;;1.41;100.00;99988.34;104767;1267;101340;-76
2023/12/10 00:49:14;;;;;;;82.80;45.60;;;;;;;1.41;100.00;99990.55;104835;1266;99085;-77
2023/12/10 00:52:00;;;;;;;88.00;44.80;;;;;;;1.42;100.00;99994.45;104804;1262;97991;-76
2023/12/10 00:54:45;;;;;;;85.60;44.40;;;;;;;1.44;100.00;100000.13;104743;1267;99151;-77
2023/12/10 00:57:32;;;;;;;86.80;45.20;;;;;;;1.44;100.00;99993.60;104802;1267;98446;-76
2023/12/10 01:00:18;;;;;;;87.80;43.20;;;;;;;1.45;100.00;99998.10;104930;1267;101322;-77
2023/12/10 01:03:06;;;;;;;81.00;44.00;;;;;;;1.46;100.00;99996.90;104896;1266;100359;-76
2023/12/10 01:05:51;;;;;;;82.70;44.50;;;;;;;1.49;100.00;99993.00;104702;1267;99254;-75
2023/12/10 01:08:37;;;;;;;79.40;42.20;;;;;;;1.50;100.00;99991.07;104798;1262;98089;-75
2023/12/10 01:11:23;;;;;;;88.70;45.70;;;;;;;1.51;100.00;99990.30;104791;1266;98502;-76
2023/12/10 01:14:08;;;;;;;82.50;41.90;;;;;;;1.51;100.00;99978.71;104743;1268;101405;-75
2023/12/10 01:16:54;;;;;;;83.20;42.10;;;;;;;1.48;100.00;99972.48;104860;1262;99235;-77
2023/12/10 01:19:39;;;;;;;78.00;41.70;;;;;;;1.46;100.00;99971.05;104861;1266;98292;-76
2023/12/10 01:22:25;;;;;;;80.30;42.10;;;;;;;1.47;100.00;99971.38;104709;1267;98125;-75
2023/12/10 01:25:13;;;;;;;80.20;43.20;;;;;;;1.48;100.00;99974.25;104895;1264;98545;-76
2023/12/10 01:27:59;;;;;;;91.50;45.60;;;;;;;1.47;100.00;99977.34;104987;1262;103042;-76
2023/12/10 01:30:44;;;;;;;88.30;43.50;;;;;;;1.47;100.00;99979.98;104776;1265;100174;-76
2023/12/10 01:33:30;;;;;;;81.20;42.40;;;;;;;1.47;100.00;99981.53;104736;1278;97895;-75
2023/12/10 01:36:22;;;;;;;82.90;44.60;;;;;;;1.48;100.00;99981.27;104737;1266;98042;-76
2023/12/10 01:39:08;;;;;;;83.00;43.40;;;;;;;1.48;100.00;99981.27;104823;1262;98499;-75
2023/12/10 01:41:53;;;;;;;79.20;42.80;;;;;;;1.48;100.00;99981.48;104753;1267;101363;-76
2023/12/10 01:44:39;;;;;;;83.90;43.10;;;;;;;1.46;100.00;99980.55;104770;1266;100110;-75
2023/12/10 01:47:25;;;;;;;78.00;42.60;;;;;;;1.46;100.00;99981.23;104858;1267;98000;-77
2023/12/10 01:50:13;;;;;;;85.20;43.90;;;;;;;1.46;100.00;99981.64;104863;1262;97972;-78
2023/12/10 01:52:58;;;;;;;85.80;42.70;;;;;;;1.47;100.00;99980.81;104813;1262;97984;-76
2023/12/10 01:55:45;;;;;;;88.50;44.50;;;;;;;1.48;100.00;99981.80;104795;1266;101386;-76
2023/12/10 01:58:30;;;;;;;80.60;42.90;;;;;;;1.48;100.00;99982.67;104915;1266;99341;-76
2023/12/10 02:01:17;;;;;;;86.30;44.90;;;;;;;1.47;100.00;99975.92;104833;1262;98430;-77
2023/12/10 02:04:05;;;;;;;86.00;44.60;;;;;;;1.46;100.00;99968.95;104771;1267;98582;-75
2023/12/10 02:06:51;;;;;;;78.70;41.40;;;;;;;1.42;100.00;99967.41;104794;1266;99751;-76
2023/12/10 02:09:36;;;;;;;82.40;43.40;;;;;;;1.43;100.00;99966.30;104764;1267;101840;-77
2023/12/10 02:12:22;;;;;;;83.00;43.40;;;;;;;1.45;100.00;99964.30;104820;1264;100343;-76
2023/12/10 02:15:17;;;;;;;86.00;45.80;;;;;;;1.44;100.00;99964.54;104767;1265;99038;-77
2023/12/10 02:18:02;;;;;;;87.60;44.70;;;;;;;1.41;100.00;99964.31;104983;1262;98076;-76
2023/12/10 02:20:48;;;;;;;82.40;44.20;;;;;;;1.39;100.00;99959.58;104867;1262;97956;-75
2023/12/10 02:24:01;;;;;;;85.00;44.80;;;;;;;1.39;100.00;99958.92;104803;1262;101358;-77
2023/12/10 02:26:47;;;;;;;91.80;45.60;;;;;;;1.39;100.00;99955.42;104813;1266;99092;-77
2023/12/10 02:29:33;;;;;;;82.70;42.40;;;;;;;1.36;100.00;99955.14;104786;1262;99120;-78
2023/12/10 02:32:18;;;;;;;82.40;43.00;;;;;;;1.36;100.00;99956.18;104724;1266;98000;-76
2023/12/10 02:35:04;;;;;;;84.70;45.10;;;;;;;1.38;100.00;99948.43;104835;1262;98502;-77
2023/12/10 02:37:50;;;;;;;91.10;45.10;;;;;;;1.40;100.00;99945.32;104845;1266;101386;-75
2023/12/10 02:40:36;;;;;;;94.60;49.20;;;;;;;1.40;100.00;99942.05;104810;1262;99155;-76
2023/12/10 02:43:21;;;;;;;88.50;45.30;;;;;;;1.42;100.00;99940.14;104806;1266;99270;-76
2023/12/10 02:46:07;;;;;;;92.40;47.60;;;;;;;1.42;100.00;99935.41;104936;1262;99142;-77
2023/12/10 02:48:53;;;;;;;94.30;50.50;;;;;;;1.41;100.00;99936.42;104835;1267;97971;-76
2023/12/10 02:51:38;;;;;;;95.40;47.20;;;;;;;1.40;100.00;99937.86;104792;1267;102622;-77
2023/12/10 02:54:24;;;;;;;92.40;45.60;;;;;;;1.40;100.00;99932.92;104698;1262;99157;-76
2023/12/10 02:57:09;;;;;;;90.30;45.70;;;;;;;1.42;100.00;99920.61;104701;1267;99204;-75
2023/12/10 02:59:55;;;;;;;93.80;46.50;;;;;;;1.44;100.00;99915.69;104780;1266;98054;-77
2023/12/10 03:02:40;;;;;;;88.80;47.80;;;;;;;1.46;100.00;99915.87;104804;1267;98458;-77
2023/12/10 03:05:26;;;;;;;94.70;46.30;;;;;;;1.44;100.00;99912.88;104782;1262;102752;-76
2023/12/10 03:08:11;;;;;;;90.60;49.10;;;;;;;1.43;100.00;99908.91;104874;1267;100892;-77
2023/12/10 03:10:57;;;;;;;91.30;47.30;;;;;;;1.42;100.00;99905.34;104756;1267;98939;-76
2023/12/10 03:13:42;;;;;;;94.00;47.10;;;;;;;1.41;100.00;99909.48;104831;1262;97974;-76
2023/12/10 03:16:28;;;;;;;100.50;51.30;;;;;;;1.41;100.00;99908.59;104869;1262;99254;-77
2023/12/10 03:19:13;;;;;;;98.50;49.50;;;;;;;1.38;100.00;99904.63;104781;1262;102436;-76
2023/12/10 03:21:59;;;;;;;100.00;53.70;;;;;;;1.37;100.00;99908.48;104772;1266;99109;-76
2023/12/10 03:24:44;;;;;;;113.00;55.50;;;;;;;1.36;100.00;99900.93;104850;1267;98589;-77
2023/12/10 03:27:30;;;;;;;102.80;51.20;;;;;;;1.36;100.00;99898.52;104846;1267;98123;-77
2023/12/10 03:30:16;;;;;;;94.50;47.50;;;;;;;1.34;100.00;99897.78;104778;1262;98587;-77
2023/12/10 03:33:01;;;;;;;98.50;47.80;;;;;;;1.33;100.00;99904.95;104718;1267;101337;-77
2023/12/10 03:35:47;;;;;;;91.90;49.80;;;;;;;1.33;100.00;99899.50;104814;1267;99610;-77
2023/12/10 03:38:32;;;;;;;83.30;43.30;;;;;;;1.32;100.00;99903.65;104902;1267;97957;-77
2023/12/10 03:41:18;;;;;;;83.10;41.10;;;;;;;1.29;100.00;99911.48;104948;1262;97973;-76
2023/12/10 03:44:04;;;;;;;77.90;39.90;;;;;;;1.26;100.00;99908.95;104734;1262;98007;-76
2023/12/10 03:46:49;;;;;;;82.30;41.70;;;;;;;1.24;100.00;99903.52;104731;1262;101393;-76
2023/12/10 03:49:34;;;;;;;85.80;41.70;;;;;;;1.24;100.00;99906.87;104852;1266;99168;-76
2023/12/10 03:52:20;;;;;;;76.60;39.80;;;;;;;1.25;100.00;99904.45;104869;1262;99135;-76
2023/12/10 03:55:07;;;;;;;77.40;41.00;;;;;;;1.27;100.00;99908.73;104841;1267;99117;-76
2023/12/10 03:57:52;;;;;;;78.20;40.00;;;;;;;1.28;100.00;99909.95;105157;1264;98455;-76
2023/12/10 04:00:37;;;;;;;86.90;44.10;;;;;;;1.29;100.00;99908.85;104952;1264;101392;-76
2023/12/10 04:03:23;;;;;;;92.00;46.90;;;;;;;1.29;100.00;99910.14;104856;1262;99623;-76
2023/12/10 04:06:09;;;;;;;96.00;46.50;;;;;;;1.27;100.00;99910.42;104707;1267;98993;-76
2023/12/10 04:08:54;;;;;;;83.50;42.60;;;;;;;1.27;100.00;99911.48;104776;1266;97910;-76
2023/12/10 04:11:39;;;;;;;89.00;40.90;;;;;;;1.27;100.00;99899.05;104766;1266;98491;-75
2023/12/10 04:14:25;;;;;;;89.00;42.70;;;;;;;1.26;100.00;99893.19;104878;1262;101413;-76
2023/12/10 04:17:11;;;;;;;83.70;43.00;;;;;;;1.27;100.00;99892.56;104943;1266;99101;-75
2023/12/10 04:19:56;;;;;;;83.80;42.20;;;;;;;1.26;100.00;99892.83;104721;1267;99025;-76
2023/12/10 04:22:42;;;;;;;81.10;42.50;;;;;;;1.24;100.00;99895.10;104772;1262;99029;-76
2023/12/10 04:25:28;;;;;;;79.90;42.10;;;;;;;1.20;100.00;99895.63;104835;1267;99142;-77
2023/12/10 04:28:13;;;;;;;88.10;41.70;;;;;;;1.18;100.00;99892.87;104784;1262;102953;-76
2023/12/10 04:30:59;;;;;;;80.50;41.10;;;;;;;1.17;100.00;99880.88;104906;1262;99154;-77
2023/12/10 04:33:44;;;;;;;78.70;39.30;;;;;;;1.16;100.00;99876.91;105016;1266;99070;-75
2023/12/10 04:36:30;;;;;;;73.00;37.00;;;;;;;1.15;100.00;99879.45;105017;1266;97905;-77
2023/12/10 04:39:16;;;;;;;71.40;38.40;;;;;;;1.14;100.00;99880.02;105100;1266;98502;-76
2023/12/10 04:42:02;;;;;;;71.50;37.60;;;;;;;1.13;100.00;99875.37;104802;1262;102073;-76
2023/12/10 04:44:48;;;;;;;81.30;39.30;;;;;;;1.12;100.00;99873.38;104785;1266;99125;-77
2023/12/10 04:47:36;;;;;;;72.10;36.80;;;;;;;1.10;100.00;99875.33;104752;1262;99427;-77
2023/12/10 04:50:22;;;;;;;71.20;38.10;;;;;;;1.08;100.00;99871.14;104949;1264;98003;-77
2023/12/10 04:53:07;;;;;;;71.30;36.50;;;;;;;1.08;100.00;99868.31;104991;1264;97921;-76
2023/12/10 04:55:52;;;;;;;70.10;34.70;;;;;;;1.09;100.00;99870.16;104857;1262;102622;-76
2023/12/10 04:58:38;;;;;;;69.10;36.00;;;;;;;1.10;100.00;99873.05;104786;1262;100372;-76
2023/12/10 05:01:24;;;;;;;70.50;34.50;;;;;;;1.08;100.00;99876.41;104789;1267;98496;-75
2023/12/10 05:04:09;;;;;;;66.10;35.90;;;;;;;1.06;100.00;99885.39;104776;1262;98032;-76
2023/12/10 05:06:54;;;;;;;71.50;35.60;;;;;;;1.06;100.00;99885.61;104747;1264;97900;-76
2023/12/10 05:09:40;;;;;;;69.50;35.70;;;;;;;1.04;100.00;99883.34;104784;1267;102746;-77
2023/12/10 05:12:26;;;;;;;72.70;35.30;;;;;;;1.02;100.00;99888.23;104843;1262;100339;-77
2023/12/10 05:15:12;;;;;;;70.10;32.80;;;;;;;1.00;100.00;99881.70;105007;1267;99539;-77
2023/12/10 05:18:01;;;;;;;66.00;32.00;;;;;;;0.99;100.00;99883.98;104855;1267;97962;-76
2023/12/10 05:20:46;;;;;;;62.80;32.20;;;;;;;0.97;100.00;99893.86;104800;1264;99269;-76
2023/12/10 05:23:32;;;;;;;62.60;32.60;;;;;;;0.94;100.00;99898.73;105084;1262;102388;-76
2023/12/10 05:26:17;;;;;;;64.70;32.20;;;;;;;0.90;100.00;99908.37;104872;1266;99089;-75
2023/12/10 05:29:02;;;;;;;58.20;31.10;;;;;;;0.85;100.00;99910.23;104799;1267;98461;-77
2023/12/10 05:31:48;;;;;;;65.00;31.70;;;;;;;0.82;100.00;99903.52;105089;1262;97875;-76
2023/12/10 05:34:34;;;;;;;61.90;30.80;;;;;;;0.78;100.00;99900.46;104984;1266;98492;-75
2023/12/10 05:37:19;;;;;;;62.50;29.90;;;;;;;0.74;100.00;99897.35;104733;1262;101371;-76
2023/12/10 05:40:05;;;;;;;69.10;32.10;;;;;;;0.70;100.00;99900.88;104991;1262;99356;-76
2023/12/10 05:42:52;;;;;;;62.90;32.20;;;;;;;0.66;100.00;99902.98;105067;1266;99686;-77
2023/12/10 05:45:38;;;;;;;60.10;29.90;;;;;;;0.63;100.00;99911.01;105088;1266;97976;-76
2023/12/10 05:48:24;;;;;;;56.20;28.50;;;;;;;0.58;100.00;99919.73;105159;1266;98960;-76
2023/12/10 05:51:09;;;;;;;57.00;26.60;;;;;;;0.56;100.00;99925.18;105134;1262;101382;-76
2023/12/10 05:53:56;;;;;;;52.10;27.90;;;;;;;0.56;100.00;99929.23;104826;1265;99995;-78
2023/12/10 05:56:43;;;;;;;57.90;27.10;;;;;;;0.51;100.00;99935.55;104879;1266;98315;-78
2023/12/10 05:59:28;;;;;;;53.40;26.00;;;;;;;0.47;100.00;99942.00;105195;1266;98449;-77
2023/12/10 06:02:14;;;;;;;57.10;28.70;;;;;;;0.45;100.00;99936.56;105148;1262;97954;-77
2023/12/10 06:04:59;;;;;;;54.00;28.30;;;;;;;0.47;100.00;99936.77;105111;1262;102026;-78
2023/12/10 06:07:45;;;;;;;55.90;28.10;;;;;;;0.46;100.00;99937.53;105128;1266;99890;-77
2023/12/10 06:10:31;;;;;;;65.70;30.20;;;;;;;0.44;100.00;99931.26;105105;1264;99209;-78
2023/12/10 06:13:16;;;;;;;66.80;31.50;;;;;;;0.43;100.00;99928.04;105117;1262;97972;-74
2023/12/10 06:16:02;;;;;;;111.30;50.90;;;;;;;0.41;100.00;99924.48;105145;1266;98444;-78
2023/12/10 06:18:48;;;;;;;99.60;50.10;;;;;;;0.42;100.00;99928.77;105176;1266;101351;-76
2023/12/10 06:21:33;;;;;;;88.30;43.00;;;;;;;0.40;100.00;99931.08;105106;1262;99089;-77
2023/12/10 06:24:19;;;;;;;61.00;32.90;;;;;;;0.38;100.00;99935.45;105150;1262;98568;-76
2023/12/10 06:27:05;;;;;;;54.20;28.10;;;;;;;0.34;100.00;99951.61;105094;1262;97978;-76
2023/12/10 06:29:51;;;;;;;52.50;27.50;;;;;;;0.27;100.00;99965.80;105123;1267;97990;-77
2023/12/10 06:32:36;;;;;;;57.40;27.40;;;;;;;0.21;100.00;99960.38;105084;1262;101380;-77
2023/12/10 06:35:22;;;;;;;56.80;27.60;;;;;;;0.16;100.00;99959.98;105126;1267;100128;-75
2023/12/10 06:38:07;;;;;;;60.70;29.10;;;;;;;0.10;100.00;99949.48;105157;1262;97979;-77
2023/12/10 06:40:53;;;;;;;62.70;29.30;;;;;;;0.08;100.00;99947.39;105092;1262;97940;-77
2023/12/10 06:43:38;;;;;;;47.50;24.50;;;;;;;0.01;100.00;99954.12;105191;1262;97952;-77
2023/12/10 06:46:24;;;;;;;48.10;25.80;;;;;;;-0.03;100.00;99955.33;105217;1262;102628;-77
2023/12/10 06:49:10;;;;;;;54.50;29.00;;;;;;;-0.02;100.00;99958.58;105148;1262;100365;-76
2023/12/10 06:51:55;;;;;;;51.40;25.20;;;;;;;-0.07;100.00;99963.91;105228;1262;98703;-76
2023/12/10 06:54:41;;;;;;;48.00;25.90;;;;;;;-0.09;100.00;99972.20;105204;1266;98021;-77
2023/12/10 06:57:27;;;;;;;47.60;23.10;;;;;;;-0.12;100.00;99965.61;105101;1266;99659;-76
2023/12/10 07:00:13;;;;;;;53.20;26.40;;;;;;;-0.14;100.00;99965.29;105132;1262;102653;-76
2023/12/10 07:02:58;;;;;;;49.80;24.30;;;;;;;-0.18;100.00;99981.55;105248;1262;99148;-76
2023/12/10 07:05:44;;;;;;;48.40;25.00;;;;;;;-0.22;100.00;99989.52;105074;1262;97975;-76
2023/12/10 07:08:31;;;;;;;47.90;24.90;;;;;;;-0.22;100.00;99991.27;105136;1262;97960;-77
2023/12/10 07:11:16;;;;;;;42.30;22.90;;;;;;;-0.21;100.00;99988.67;105129;1262;98522;-77
2023/12/10 07:14:02;;;;;;;46.20;23.20;;;;;;;-0.21;100.00;99991.48;105146;1264;101331;-78
2023/12/10 07:16:48;;;;;;;48.00;24.00;;;;;;;-0.22;100.00;99989.97;105195;1267;100719;-77
2023/12/10 07:19:34;;;;;;;47.30;23.50;;;;;;;-0.21;100.00;99988.71;105115;1267;97958;-77
2023/12/10 07:22:20;;;;;;;38.60;20.10;;;;;;;-0.23;100.00;99995.58;105184;1267;98009;-77
2023/12/10 07:25:06;;;;;;;45.40;23.80;;;;;;;-0.25;100.00;99997.44;105172;1267;97864;-77
2023/12/10 07:27:51;;;;;;;41.00;21.20;;;;;;;-0.24;100.00;100004.45;105200;1262;101374;-78
2023/12/10 07:30:37;;;;;;;37.40;20.40;;;;;;;-0.24;100.00;100016.52;105143;1266;100060;-77
2023/12/10 07:33:22;;;;;;;44.00;22.30;;;;;;;-0.24;100.00;100024.79;105182;1266;98449;-77
2023/12/10 07:36:08;;;;;;;46.50;21.60;;;;;;;-0.22;100.00;100028.66;105058;1267;97962;-78
2023/12/10 07:38:54;;;;;;;41.20;20.90;;;;;;;-0.20;100.00;100031.61;105140;1262;98474;-76
2023/12/10 07:41:40;;;;;;;42.60;21.00;;;;;;;-0.18;100.00;100032.61;105063;1267;101359;-76
2023/12/10 07:44:25;;;;;;;40.00;19.70;;;;;;;-0.14;100.00;100021.94;105057;1262;99255;-76
2023/12/10 07:47:11;;;;;;;44.30;20.10;;;;;;;-0.10;100.00;100023.19;104924;1262;106877;-76
2023/12/10 07:49:56;;;;;;;45.90;21.90;;;;;;;-0.09;100.00;100030.80;105115;1262;97972;-77
2023/12/10 07:52:42;;;;;;;42.40;20.10;;;;;;;-0.06;100.00;100025.29;105062;1266;98478;-76
2023/12/10 07:55:27;;;;;;;41.60;21.00;;;;;;;-0.03;100.00;100031.54;105040;1266;103089;-76
2023/12/10 07:58:13;;;;;;;44.70;22.70;;;;;;;-0.01;100.00;100038.20;104749;1278;99068;-76
2023/12/10 08:01:00;;;;;;;40.40;20.80;;;;;;;0.01;100.00;100039.58;105088;1277;98998;-76
2023/12/10 08:03:45;;;;;;;39.70;19.80;;;;;;;0.06;100.00;100032.53;105097;1262;97932;-76
2023/12/10 08:06:31;;;;;;;41.70;20.90;;;;;;;0.14;100.00;100030.75;105188;1262;98546;-77
2023/12/10 08:09:17;;;;;;;60.90;31.20;;;;;;;0.17;100.00;100031.19;105115;1266;101370;-76
2023/12/10 08:12:03;;;;;;;314.90;158.30;;;;;;;0.21;100.00;100031.83;105199;1267;100464;-76
2023/12/10 08:14:49;;;;;;;127.70;64.50;;;;;;;0.25;100.00;100025.38;105181;1266;97953;-76
2023/12/10 08:17:34;;;;;;;124.90;68.10;;;;;;;0.29;100.00;100015.02;105106;1262;97978;-76
2023/12/10 08:20:19;;;;;;;188.60;99.90;;;;;;;0.32;100.00;100018.08;105110;1267;97991;-76
2023/12/10 08:23:05;;;;;;;112.10;65.70;;;;;;;0.33;100.00;100021.66;105293;1262;102385;-77
2023/12/10 08:25:51;;;;;;;63.00;32.80;;;;;;;0.33;100.00;100024.40;105269;1262;100416;-79
2023/12/10 08:28:37;;;;;;;61.80;35.40;;;;;;;0.36;100.00;100022.21;105081;1262;99442;-78
2023/12/10 08:31:22;;;;;;;55.30;33.90;;;;;;;0.36;100.00;100024.13;105091;1267;98071;-78
2023/12/10 08:34:08;;;;;;;51.60;30.20;;;;;;;0.37;100.00;100023.95;105220;1265;98419;-78
2023/12/10 08:36:54;;;;;;;50.50;29.00;;;;;;;0.38;100.00;100025.05;105212;1263;102030;-78
2023/12/10 08:39:42;;;;;;;45.20;24.30;;;;;;;0.40;100.00;100022.05;105362;1262;100810;-79
2023/12/10 08:42:28;;;;;;;48.90;26.20;;;;;;;0.44;100.00;100019.07;105494;1267;98016;-79
2023/12/10 08:45:13;;;;;;;66.10;34.70;;;;;;;0.48;100.00;100012.33;105768;1267;97883;-79
2023/12/10 08:47:59;;;;;;;57.00;34.20;;;;;;;0.51;100.00;100014.52;105598;1262;99112;-79
2023/12/10 08:50:44;;;;;;;53.00;29.00;;;;;;;0.53;100.00;100016.67;105682;1262;101421;-82
2023/12/10 08:53:30;;;;;;;56.20;33.60;;;;;;;0.52;100.00;100026.61;105760;1262;99073;-87
2023/12/10 08:56:19;;;;;;;58.00;32.00;;;;;;;0.51;100.00;100024.79;105790;1262;98869;-83
2023/12/10 08:59:05;;;;;;;49.00;27.20;;;;;;;0.48;100.00;100024.09;105423;1262;99221;-80
2023/12/10 09:01:51;;;;;;;48.10;28.50;;;;;;;0.50;100.00;100022.92;106381;1266;97953;-80
2023/12/10 09:04:36;;;;;;;52.20;30.50;;;;;;;0.53;100.00;100023.18;106678;1262;102512;-78
2023/12/10 09:07:22;;;;;;;64.00;36.40;;;;;;;0.57;100.00;100022.43;105867;1262;100169;-81
2023/12/10 09:10:07;;;;;;;58.00;30.40;;;;;;;0.60;100.00;100022.69;105954;1262;99543;-81
2023/12/10 09:12:53;;;;;;;53.60;27.90;;;;;;;0.63;100.00;100017.87;105841;1262;99074;-81
2023/12/10 09:15:38;;;;;;;68.50;35.40;;;;;;;0.65;100.00;100018.90;105793;1267;97796;-79
2023/12/10 09:18:26;;;;;;;63.90;33.00;;;;;;;0.65;100.00;100016.25;105521;1262;102422;-83
2023/12/10 09:21:12;;;;;;;62.80;30.30;;;;;;;0.64;100.00;100010.60;105521;1262;100451;-82
2023/12/10 09:23:57;;;;;;;59.70;29.00;;;;;;;0.64;100.00;100005.34;105505;1267;99121;-82
2023/12/10 09:26:44;;;;;;;62.70;32.60;;;;;;;0.64;100.00;100007.35;105442;1269;98084;-82
2023/12/10 09:29:38;;;;;;;57.00;30.60;;;;;;;0.67;100.00;100009.10;105426;1267;98567;-76
2023/12/10 09:32:26;;;;;;;55.30;30.90;;;;;;;0.69;100.00;100012.23;104659;1262;102611;-75
2023/12/10 09:35:12;;;;;;;65.20;33.00;;;;;;;0.72;100.00;100010.22;104665;1262;100141;-74
2023/12/10 09:37:57;;;;;;;66.20;33.10;;;;;;;0.74;100.00;100011.80;104666;1266;98743;-75
2023/12/10 09:40:43;;;;;;;60.70;31.40;;;;;;;0.78;100.00;100013.46;104682;1262;98180;-75
2023/12/10 09:43:28;;;;;;;75.30;41.80;;;;;;;0.85;100.00;100014.45;104686;1262;98510;-75
2023/12/10 09:46:15;;;;;;;89.20;55.00;;;;;;;0.89;100.00;100015.85;104699;1266;101381;-75
2023/12/10 09:49:00;;;;;;;72.20;40.40;;;;;;;0.91;100.00;100020.12;104666;1262;99985;-75
2023/12/10 09:51:46;;;;;;;88.80;57.90;;;;;;;0.91;100.00;100020.60;104636;1267;98712;-76
2023/12/10 09:54:31;;;;;;;68.10;40.30;;;;;;;0.93;100.00;100020.76;104638;1262;99143;-76
2023/12/10 09:57:17;;;;;;;61.60;34.30;;;;;;;0.96;100.00;100016.09;104649;1264;98499;-75
2023/12/10 10:00:05;;;;;;;83.00;42.70;;;;;;;0.97;100.00;100016.12;104796;1266;102428;-75
2023/12/10 10:02:50;;;;;;;162.40;75.20;;;;;;;0.98;100.00;100017.84;104639;1267;100941;-74
2023/12/10 10:05:36;;;;;;;193.00;92.40;;;;;;;0.98;100.00;100023.47;105340;1262;98249;-81
2023/12/10 10:08:22;;;;;;;66.10;36.40;;;;;;;0.98;100.00;100024.72;106016;1262;98312;-80
2023/12/10 10:11:07;;;;;;;59.30;33.50;;;;;;;0.96;100.00;100020.62;105479;1267;98630;-79
2023/12/10 10:13:53;;;;;;;66.60;37.60;;;;;;;0.98;100.00;100011.62;106180;1262;101416;-81
2023/12/10 10:16:39;;;;;;;59.20;30.90;;;;;;;0.99;100.00;100008.04;106142;1264;99193;-79
2023/12/10 10:19:25;;;;;;;57.20;29.70;;;;;;;0.99;100.00;100013.56;105352;1264;98801;-79
2023/12/10 10:22:12;;;;;;;59.70;30.60;;;;;;;1.00;100.00;100013.29;105204;1266;98879;-78
2023/12/10 10:24:58;;;;;;;78.90;44.00;;;;;;;1.00;100.00;100012.40;105226;1267;98406;-78
2023/12/10 10:27:44;;;;;;;58.40;31.70;;;;;;;1.02;100.00;100006.40;106028;1262;102426;-81
2023/12/10 10:30:29;;;;;;;77.20;41.30;;;;;;;1.02;100.00;100004.40;105778;1267;99974;-78
2023/12/10 10:33:15;;;;;;;156.80;94.10;;;;;;;1.05;100.00;99996.52;105157;1262;98676;-78
2023/12/10 10:36:02;;;;;;;109.70;58.80;;;;;;;1.08;100.00;99994.54;105313;1262;98416;-83
2023/12/10 10:38:51;;;;;;;79.50;46.60;;;;;;;1.11;100.00;99989.31;105793;1262;98438;-81
2023/12/10 10:41:38;;;;;;;74.90;42.20;;;;;;;1.15;100.00;99991.64;106067;1266;101340;-80
2023/12/10 10:44:23;;;;;;;78.10;43.70;;;;;;;1.17;100.00;99992.98;106006;1267;99401;-79
2023/12/10 10:47:09;;;;;;;68.30;35.40;;;;;;;1.19;100.00;99989.27;105640;1262;98967;-78
2023/12/10 10:49:57;;;;;;;68.80;34.90;;;;;;;1.20;100.00;99985.13;105617;1262;98655;-80
2023/12/10 10:52:46;;;;;;;66.70;32.10;;;;;;;1.18;100.00;99982.55;105273;1262;97875;-79
2023/12/10 10:55:33;;;;;;;69.90;37.10;;;;;;;1.18;100.00;99982.22;105796;1269;101444;-82
2023/12/10 10:58:27;;;;;;;66.20;35.70;;;;;;;1.17;100.00;99982.64;105752;1266;99188;-82
2023/12/10 11:01:40;;;;;;;66.40;33.90;;;;;;;1.18;100.00;99989.43;106133;1266;99086;-80
2023/12/10 11:04:38;;;;;;;64.80;30.90;;;;;;;1.20;100.00;99990.08;106468;1262;96533;-80
2023/12/10 11:07:25;;;;;;;75.10;37.60;;;;;;;1.23;100.00;99993.52;105940;1268;98007;-79
2023/12/10 11:10:10;;;;;;;97.20;48.50;;;;;;;1.24;100.00;99997.05;105542;1267;102201;-81
2023/12/10 11:12:57;;;;;;;67.10;33.00;;;;;;;1.26;100.00;100000.22;105820;1262;98952;-84
2023/12/10 11:15:57;;;;;;;73.10;32.70;;;;;;;1.26;100.00;100002.39;105885;1267;99079;-82
2023/12/10 11:18:51;;;;;;;60.00;30.20;;;;;;;1.24;100.00;100007.98;105913;1262;97974;-81
2023/12/10 11:21:36;;;;;;;66.20;34.00;;;;;;;1.25;100.00;100005.95;106188;1262;98490;-80
2023/12/10 11:24:22;;;;;;;60.50;31.90;;;;;;;1.25;100.00;100003.83;105909;1265;102680;-79
2023/12/10 11:27:16;;;;;;;59.30;29.10;;;;;;;1.24;100.00;100003.92;105328;1267;99107;-83
2023/12/10 11:30:01;;;;;;;65.30;30.90;;;;;;;1.23;100.00;100003.38;105673;1262;98000;-83
2023/12/10 11:32:47;;;;;;;67.10;32.30;;;;;;;1.23;100.00;100001.27;106099;1262;98542;-80
2023/12/10 11:35:33;;;;;;;64.10;32.30;;;;;;;1.24;100.00;99999.37;105282;1268;97965;-79
2023/12/10 11:38:18;;;;;;;66.70;34.90;;;;;;;1.23;100.00;100000.89;105569;1267;102161;-78
2023/12/10 11:41:04;;;;;;;86.70;47.30;;;;;;;1.22;100.00;100000.77;105384;1267;100256;-80
2023/12/10 11:43:49;;;;;;;109.20;51.10;;;;;;;1.21;100.00;100005.83;105415;1262;97980;-80
2023/12/10 11:46:37;;;;;;;90.90;44.90;;;;;;;1.22;100.00;100004.84;105465;1268;97831;-84
2023/12/10 11:49:22;;;;;;;89.90;46.40;;;;;;;1.23;100.00;100007.56;105935;1262;99362;-86
2023/12/10 11:52:08;;;;;;;107.50;53.30;;;;;;;1.21;100.00;100005.45;105997;1267;102292;-82
2023/12/10 11:54:54;;;;;;;70.20;37.50;;;;;;;1.19;100.00;100000.57;106161;1267;99349;-80
2023/12/10 11:57:42;;;;;;;71.90;37.40;;;;;;;1.19;100.00;99998.46;105906;1262;97996;-80
2023/12/10 12:00:28;;;;;;;67.80;36.80;;;;;;;1.20;100.00;100002.04;106600;1266;97975;-80
2023/12/10 12:03:14;;;;;;;66.30;36.00;;;;;;;1.21;100.00;100002.62;106028;1281;98415;-83
2023/12/10 12:06:00;;;;;;;80.80;38.80;;;;;;;1.23;100.00;100004.95;105899;1262;101443;-83
2023/12/10 12:08:47;;;;;;;82.90;42.40;;;;;;;1.25;100.00;100006.36;105684;1267;100442;-81
2023/12/10 12:11:32;;;;;;;60.00;31.40;;;;;;;1.27;100.00;100001.61;105808;1262;98039;-81
2023/12/10 12:14:19;;;;;;;62.30;30.70;;;;;;;1.26;100.00;99999.55;105713;1267;98921;-81
2023/12/10 12:17:06;;;;;;;56.90;31.90;;;;;;;1.26;100.00;99999.92;106289;1264;97938;-84
2023/12/10 12:19:52;;;;;;;58.60;30.20;;;;;;;1.25;100.00;99999.48;105867;1262;101437;-76
2023/12/10 12:22:38;;;;;;;82.80;44.30;;;;;;;1.27;100.00;99994.86;105048;1262;100385;-76
2023/12/10 12:25:24;;;;;;;115.00;58.20;;;;;;;1.27;100.00;99990.83;105863;1267;99022;-81
2023/12/10 12:28:09;;;;;;;128.20;65.50;;;;;;;1.27;100.00;99985.89;106422;1266;96394;-81
2023/12/10 12:30:55;;;;;;;75.90;40.70;;;;;;;1.29;100.00;99992.41;106467;1266;96604;-81